createdAt,value
2019-03-22T00:05:42.450Z,24.57
2019-03-22T00:08:12.676Z,25.77
2019-03-22T00:10:42.951Z,25.33
2019-03-22T00:13:13.180Z,27.07
2019-03-22T00:15:43.504Z,25.50
2019-03-22T00:18:13.732Z,26.00
2019-03-22T00:20:43.953Z,28.03
2019-03-22T00:23:14.178Z,27.47
2019-03-22T00:25:44.444Z,27.80
2019-03-22T00:28:14.696Z,26.90
2019-03-22T00:30:44.936Z,26.90
2019-03-22T00:33:15.132Z,24.67
2019-03-22T00:35:45.337Z,24.30
2019-03-22T00:38:15.559Z,24.77
2019-03-22T00:40:45.781Z,24.77
2019-03-22T00:43:16.057Z,24.20
2019-03-22T00:45:46.322Z,25.90
2019-03-22T00:48:16.500Z,25.67
2019-03-22T00:50:46.769Z,24.13
2019-03-22T00:53:16.966Z,25.07
2019-03-22T00:55:47.212Z,24.73
2019-03-22T00:58:17.448Z,24.47
2019-03-22T01:00:47.704Z,27.10
2019-03-22T01:03:17.917Z,25.57
2019-03-22T01:05:48.167Z,26.73
2019-03-22T01:08:18.459Z,28.00
2019-03-22T01:10:48.694Z,30.53
2019-03-22T01:13:18.913Z,29.27
2019-03-22T01:15:49.151Z,29.10
2019-03-22T01:18:19.495Z,27.60
2019-03-22T01:20:49.761Z,26.47
2019-03-22T01:23:19.965Z,25.23
2019-03-22T01:25:50.235Z,28.50
2019-03-22T01:28:20.487Z,26.93
2019-03-22T01:30:50.753Z,24.87
2019-03-22T01:33:20.965Z,26.07
2019-03-22T01:35:51.200Z,27.70
2019-03-22T01:38:21.400Z,24.27
2019-03-22T01:40:51.645Z,25.13
2019-03-22T01:43:21.891Z,26.40
2019-03-22T01:45:52.139Z,26.00
2019-03-22T01:48:22.437Z,27.53
2019-03-22T01:50:52.759Z,29.43
2019-03-22T01:53:22.961Z,27.30
2019-03-22T01:55:53.200Z,29.23
2019-03-22T01:58:23.408Z,27.83
2019-03-22T02:00:53.775Z,29.30
2019-03-22T02:03:23.990Z,30.07
2019-03-22T02:05:54.224Z,27.83
2019-03-22T02:08:24.444Z,29.70
2019-03-22T02:10:54.685Z,29.40
2019-03-22T02:13:24.904Z,28.93
2019-03-22T02:15:55.135Z,26.63
2019-03-22T02:18:25.347Z,29.03
2019-03-22T02:20:55.617Z,31.23
2019-03-22T02:23:25.824Z,31.17
2019-03-22T02:25:56.035Z,31.30
2019-03-22T02:28:26.325Z,31.07
2019-03-22T02:30:56.563Z,34.70
2019-03-22T02:33:26.830Z,33.93
2019-03-22T02:35:57.007Z,32.90
2019-03-22T02:38:27.277Z,31.27
2019-03-22T02:40:57.510Z,30.87
2019-03-22T02:43:27.753Z,31.60
2019-03-22T02:45:57.983Z,29.10
2019-03-22T02:48:28.198Z,27.90
2019-03-22T02:50:58.424Z,27.60
2019-03-22T02:53:28.780Z,28.20
2019-03-22T02:55:59.431Z,27.00
2019-03-22T02:58:29.800Z,28.17
2019-03-22T03:01:00.022Z,29.00
2019-03-22T03:03:30.297Z,28.63
2019-03-22T03:06:00.500Z,29.80
2019-03-22T03:08:30.762Z,31.63
2019-03-22T03:11:01.027Z,27.67
2019-03-22T03:13:31.289Z,25.43
2019-03-22T03:16:01.491Z,27.73
2019-03-22T03:18:31.717Z,25.57
2019-03-22T03:21:02.004Z,27.33
2019-03-22T03:23:32.222Z,24.20
2019-03-22T03:26:02.415Z,24.30
2019-03-22T03:28:37.170Z,27.67
2019-03-22T03:31:04.536Z,27.43
2019-03-22T03:33:34.849Z,25.63
2019-03-22T03:36:05.140Z,26.17
2019-03-22T03:38:35.498Z,25.97
2019-03-22T03:41:06.043Z,24.53
2019-03-22T03:43:36.293Z,24.87
2019-03-22T03:46:06.508Z,24.03
2019-03-22T03:48:36.766Z,24.30
2019-03-22T03:51:06.948Z,22.77
2019-03-22T03:53:37.196Z,25.00
2019-03-22T03:56:07.972Z,24.63
2019-03-22T03:58:51.600Z,24.17
2019-03-22T04:01:10.126Z,23.73
2019-03-22T04:03:40.461Z,25.97
2019-03-22T04:06:10.704Z,24.33
2019-03-22T04:08:40.910Z,24.80
2019-03-22T04:11:11.124Z,23.93
2019-03-22T04:13:41.342Z,22.17
2019-03-22T04:16:11.563Z,25.30
2019-03-22T04:18:41.791Z,24.87
2019-03-22T04:21:12.003Z,24.80
2019-03-22T04:23:42.299Z,24.37
2019-03-22T04:26:12.557Z,24.13
2019-03-22T04:28:42.795Z,24.33
2019-03-22T04:31:13.020Z,26.87
2019-03-22T04:33:43.343Z,26.67
2019-03-22T04:36:13.586Z,25.40
2019-03-22T04:38:43.812Z,24.20
2019-03-22T04:41:14.026Z,26.23
2019-03-22T04:43:44.274Z,24.77
2019-03-22T04:46:16.193Z,27.07
2019-03-22T04:48:47.547Z,26.37
2019-03-22T04:51:18.819Z,24.10
2019-03-22T04:53:57.928Z,25.70
2019-03-22T04:56:30.196Z,25.50
2019-03-22T04:59:01.040Z,26.90
2019-03-22T05:01:32.342Z,24.63
2019-03-22T05:04:04.085Z,24.87
2019-03-22T05:06:35.801Z,26.30
2019-03-22T05:09:09.896Z,26.13
2019-03-22T05:11:40.726Z,25.67
2019-03-22T05:14:12.654Z,24.50
2019-03-22T05:16:45.915Z,24.23
2019-03-22T05:19:17.085Z,25.90
2019-03-22T05:21:48.234Z,24.97
2019-03-22T05:24:19.749Z,25.03
2019-03-22T05:26:50.628Z,23.20
2019-03-22T05:29:30.275Z,24.37
2019-03-22T05:32:08.021Z,23.80
2019-03-22T05:34:38.263Z,23.67
2019-03-22T05:37:08.695Z,23.40
2019-03-22T05:39:39.635Z,22.40
2019-03-22T05:42:09.897Z,23.87
2019-03-22T05:44:40.134Z,22.10
2019-03-22T05:47:10.360Z,22.27
2019-03-22T05:49:40.601Z,22.90
2019-03-22T05:52:10.814Z,23.50
2019-03-22T05:54:41.049Z,24.23
2019-03-22T05:57:13.785Z,23.87
2019-03-22T05:59:43.273Z,27.03
2019-03-22T06:02:13.597Z,22.87
2019-03-22T06:04:43.918Z,26.77
2019-03-22T06:07:14.156Z,24.53
2019-03-22T06:09:44.408Z,25.70
2019-03-22T06:12:14.620Z,26.37
2019-03-22T06:14:44.895Z,25.00
2019-03-22T06:17:15.129Z,26.13
2019-03-22T06:19:45.380Z,24.83
2019-03-22T06:22:15.616Z,26.17
2019-03-22T06:24:45.826Z,26.73
2019-03-22T06:27:16.012Z,26.23
2019-03-22T06:29:54.176Z,25.60
2019-03-22T06:32:18.554Z,27.83
2019-03-22T06:34:48.803Z,24.00
2019-03-22T06:37:19.051Z,26.87
2019-03-22T06:39:49.253Z,24.27
2019-03-22T06:42:19.488Z,27.00
2019-03-22T06:44:49.700Z,26.00
2019-03-22T06:47:19.942Z,27.53
2019-03-22T06:49:50.163Z,27.17
2019-03-22T06:52:20.494Z,27.80
2019-03-22T06:54:50.698Z,27.90
2019-03-22T06:57:20.948Z,26.67
2019-03-22T06:59:51.186Z,25.27
2019-03-22T07:02:21.476Z,26.70
2019-03-22T07:04:51.670Z,25.63
2019-03-22T07:07:21.888Z,27.60
2019-03-22T07:09:52.100Z,27.63
2019-03-22T07:12:22.355Z,27.17
2019-03-22T07:14:52.605Z,27.57
2019-03-22T07:17:24.005Z,28.30
2019-03-22T07:19:54.251Z,25.63
2019-03-22T07:22:24.499Z,27.10
2019-03-22T07:24:54.727Z,25.83
2019-03-22T07:27:24.942Z,27.63
2019-03-22T07:29:55.178Z,26.47
2019-03-22T07:32:25.389Z,25.47
2019-03-22T07:34:55.600Z,27.37
2019-03-22T07:37:25.873Z,25.73
2019-03-22T07:39:56.132Z,24.77
2019-03-22T07:42:26.424Z,25.80
2019-03-22T07:44:56.639Z,26.30
2019-03-22T07:47:26.944Z,25.03
2019-03-22T07:49:57.130Z,24.50
2019-03-22T07:52:27.362Z,23.10
2019-03-22T07:54:57.584Z,22.47
2019-03-22T07:57:27.846Z,23.50
2019-03-22T07:59:58.046Z,23.43
2019-03-22T08:02:28.345Z,23.57
2019-03-22T08:04:58.535Z,22.80
2019-03-22T08:07:29.199Z,22.90
2019-03-22T08:09:59.499Z,22.53
2019-03-22T08:12:29.874Z,22.83
2019-03-22T08:15:00.378Z,21.63
2019-03-22T08:17:30.710Z,23.13
2019-03-22T08:20:00.989Z,25.10
2019-03-22T08:22:31.454Z,25.33
2019-03-22T08:25:01.628Z,24.07
2019-03-22T08:27:31.913Z,25.10
2019-03-22T08:30:02.522Z,23.93
2019-03-22T08:32:32.788Z,26.37
2019-03-22T08:35:02.981Z,26.40
2019-03-22T08:37:33.320Z,26.40
2019-03-22T08:40:03.594Z,26.47
2019-03-22T08:42:33.909Z,28.80
2019-03-22T08:45:04.303Z,26.20
2019-03-22T08:47:34.852Z,27.20
2019-03-22T08:50:05.498Z,29.33
2019-03-22T08:52:35.699Z,27.57
2019-03-22T08:55:06.241Z,28.27
2019-03-22T08:57:36.531Z,28.30
2019-03-22T09:00:08.144Z,25.17
2019-03-22T09:18:21.820Z,27.43
2019-03-22T09:20:52.133Z,27.70
2019-03-22T09:23:22.435Z,26.73
2019-03-22T09:25:52.732Z,27.97
2019-03-22T09:28:22.960Z,26.37
2019-03-22T09:30:53.230Z,27.77
2019-03-22T09:33:23.451Z,27.37
2019-03-22T09:35:53.643Z,28.33
2019-03-22T09:38:23.900Z,26.93
2019-03-22T09:40:54.130Z,28.10
2019-03-22T09:43:24.475Z,28.00
2019-03-22T09:45:54.723Z,29.13
2019-03-22T09:48:25.059Z,27.60
2019-03-22T09:50:55.351Z,28.67
2019-03-22T09:53:25.626Z,29.83
2019-03-22T09:56:02.094Z,29.27
2019-03-22T09:58:39.821Z,28.37
2019-03-22T10:01:23.877Z,28.30
2019-03-22T10:04:49.708Z,27.73
2019-03-22T10:07:26.554Z,28.40
2019-03-22T10:13:48.319Z,26.30
2019-03-22T10:16:33.145Z,25.23
2019-03-22T10:19:11.690Z,26.07
2019-03-22T10:21:51.125Z,25.03
2019-03-22T10:24:30.241Z,26.73
2019-03-22T10:27:24.990Z,26.70
2019-03-22T10:33:39.978Z,26.93
2019-03-22T10:36:50.068Z,25.93
2019-03-22T10:39:32.602Z,26.83
2019-03-22T10:59:08.739Z,24.93
2019-03-22T15:15:09.808Z,24.20
2019-03-22T15:18:17.997Z,27.20
2019-03-22T15:21:05.891Z,25.43
2019-03-22T15:24:10.826Z,26.70
2019-03-22T15:26:59.032Z,27.13
2019-03-22T15:29:48.883Z,25.17
2019-03-22T15:32:41.258Z,26.53
2019-03-22T15:35:38.417Z,27.23
2019-03-22T15:38:40.146Z,27.27
2019-03-22T15:41:10.728Z,27.33
2019-03-22T15:43:59.732Z,26.70
2019-03-22T15:46:34.654Z,26.00
2019-03-22T15:49:06.082Z,26.57
2019-03-22T15:51:39.440Z,26.43
2019-03-22T15:54:09.912Z,26.37
2019-03-22T15:56:40.861Z,28.43
2019-03-22T15:59:11.882Z,25.20
2019-03-22T16:01:52.958Z,27.10
2019-03-22T16:04:24.283Z,28.00
2019-03-22T16:06:55.673Z,26.93
2019-03-22T16:09:33.035Z,25.47
2019-03-22T16:12:05.484Z,27.90
2019-03-22T16:14:36.011Z,25.77
2019-03-22T16:17:06.899Z,26.77
2019-03-22T16:19:37.428Z,25.43
2019-03-22T16:22:07.928Z,26.57
2019-03-22T16:24:41.225Z,26.27
2019-03-22T16:27:25.819Z,25.57
2019-03-22T16:29:57.394Z,26.83
2019-03-22T16:32:30.277Z,29.63
2019-03-22T16:35:02.328Z,26.40
2019-03-22T16:37:45.764Z,26.67
2019-03-22T16:40:23.867Z,26.13
2019-03-22T16:43:10.694Z,26.53
2019-03-22T16:45:56.249Z,25.30
2019-03-22T16:48:28.474Z,26.60
2019-03-22T16:50:59.012Z,27.20
2019-03-22T16:53:33.485Z,25.77
2019-03-22T16:56:04.513Z,24.00
2019-03-22T16:58:35.571Z,24.23
2019-03-22T17:01:07.167Z,24.70
2019-03-22T17:03:38.636Z,25.07
2019-03-22T17:06:18.744Z,24.80
2019-03-22T17:09:06.928Z,25.47
2019-03-22T17:11:49.140Z,24.83
2019-03-22T17:14:40.713Z,23.13
2019-03-22T17:17:31.719Z,24.60
2019-03-22T17:20:21.770Z,23.83
2019-03-22T17:22:53.262Z,25.20
2019-03-22T17:25:34.118Z,24.03
2019-03-22T17:28:17.009Z,23.20
2019-03-22T17:30:55.908Z,22.67
2019-03-22T17:33:43.097Z,22.37
2019-03-22T17:36:13.512Z,20.87
2019-03-22T17:38:44.319Z,21.77
2019-03-22T17:41:21.390Z,22.20
2019-03-22T17:43:51.531Z,21.67
2019-03-22T17:46:21.821Z,21.63
2019-03-22T17:48:54.037Z,23.37
2019-03-22T17:51:42.089Z,22.50
2019-03-22T17:54:26.270Z,20.87
2019-03-22T17:56:57.518Z,21.73
2019-03-22T17:59:28.670Z,24.20
2019-03-22T18:02:00.127Z,22.43
2019-03-22T18:04:30.563Z,22.53
2019-03-22T18:07:00.924Z,23.53
2019-03-22T18:09:37.908Z,22.83
2019-03-22T18:12:12.359Z,22.60
2019-03-22T18:14:42.908Z,21.73
2019-03-22T18:17:15.376Z,21.83
2019-03-22T18:19:45.970Z,24.77
2019-03-22T18:22:16.547Z,25.27
2019-03-22T18:24:48.799Z,24.77
2019-03-22T18:27:19.071Z,25.97
2019-03-22T18:29:49.303Z,25.33
2019-03-22T18:32:19.682Z,25.30
2019-03-22T18:34:50.161Z,22.97
2019-03-22T18:37:23.684Z,24.27
2019-03-22T18:39:56.614Z,24.30
2019-03-22T18:42:27.432Z,23.33
2019-03-22T18:44:57.874Z,24.47
2019-03-22T18:47:28.148Z,25.37
2019-03-22T18:49:58.654Z,24.67
2019-03-22T18:52:28.984Z,25.87
2019-03-22T18:54:59.200Z,23.47
2019-03-22T18:57:29.393Z,26.17
2019-03-22T18:59:59.787Z,23.43
2019-03-22T19:02:29.980Z,23.87
2019-03-22T19:05:01.654Z,23.63
2019-03-22T19:07:33.578Z,24.13
2019-03-22T19:10:06.003Z,25.87
2019-03-22T19:12:36.305Z,24.03
2019-03-22T19:15:08.655Z,22.73
2019-03-22T19:17:41.427Z,24.17
2019-03-22T19:20:12.829Z,22.57
2019-03-22T19:22:43.866Z,27.30
2019-03-22T19:25:14.621Z,25.50
2019-03-22T19:27:45.652Z,24.80
2019-03-22T19:30:18.961Z,25.87
2019-03-22T19:32:49.536Z,26.90
2019-03-22T19:35:21.060Z,27.67
2019-03-22T19:37:52.823Z,30.47
2019-03-22T19:40:27.232Z,37.57
2019-03-22T19:42:57.397Z,29.40
2019-03-22T19:45:28.511Z,28.03
2019-03-22T19:48:01.181Z,30.53
2019-03-22T20:08:14.000Z,29.53
2019-03-22T20:10:44.279Z,27.83
2019-03-22T20:13:14.548Z,28.17
2019-03-22T20:15:44.837Z,32.67
2019-03-22T20:18:15.006Z,32.17
2019-03-22T20:20:45.237Z,28.77
2019-03-22T20:23:15.434Z,28.10
2019-03-22T20:25:45.666Z,29.53
2019-03-22T20:28:15.871Z,28.17
2019-03-22T20:30:46.466Z,25.33
2019-03-22T20:33:16.684Z,28.70
2019-03-22T20:35:46.930Z,26.97
2019-03-22T20:38:17.117Z,27.27
2019-03-22T20:40:47.686Z,29.30
2019-03-22T20:43:17.884Z,27.90
2019-03-22T20:45:48.197Z,28.30
2019-03-22T20:48:18.374Z,26.70
2019-03-22T20:50:48.633Z,28.50
2019-03-22T20:53:21.259Z,29.13
2019-03-22T20:55:51.660Z,33.20
2019-03-22T20:58:21.856Z,33.77
2019-03-22T21:00:52.039Z,27.57
2019-03-22T21:03:23.186Z,31.43
2019-03-22T21:05:53.434Z,32.00
2019-03-22T21:08:23.618Z,29.53
2019-03-22T21:10:53.862Z,30.27
2019-03-22T21:13:24.073Z,29.80
2019-03-22T21:15:54.351Z,30.50
2019-03-22T21:18:24.586Z,32.83
2019-03-22T21:20:54.821Z,29.70
2019-03-22T21:23:35.761Z,30.67
2019-03-22T21:25:56.934Z,31.47
2019-03-22T21:28:27.254Z,32.03
2019-03-22T21:30:57.530Z,31.07
2019-03-22T21:33:27.755Z,33.83
2019-03-22T21:35:57.976Z,33.03
2019-03-22T21:38:28.136Z,34.23
2019-03-22T21:40:58.294Z,34.47
2019-03-22T21:43:28.468Z,40.60
2019-03-22T21:45:58.753Z,38.33
2019-03-22T21:48:30.414Z,36.23
2019-03-22T21:51:00.625Z,35.97
2019-03-22T21:53:30.854Z,33.23
2019-03-22T21:56:01.020Z,33.23
2019-03-22T21:58:31.246Z,34.07
2019-03-22T22:01:01.393Z,32.93
2019-03-22T22:03:31.594Z,33.87
2019-03-22T22:06:01.915Z,31.20
2019-03-22T22:08:32.107Z,33.27
2019-03-22T22:11:02.301Z,32.47
2019-03-22T22:13:32.529Z,30.57
2019-03-22T22:16:02.743Z,32.37
2019-03-22T22:18:32.947Z,31.37
2019-03-22T22:21:03.086Z,32.80
2019-03-22T22:23:33.288Z,33.03
2019-03-22T22:26:03.473Z,32.37
2019-03-22T22:28:33.657Z,35.40
2019-03-22T22:31:03.847Z,34.57
2019-03-22T22:33:34.058Z,33.70
2019-03-22T22:36:04.219Z,32.57
2019-03-22T22:38:34.427Z,35.00
2019-03-22T22:41:04.580Z,38.33
2019-03-22T22:43:34.809Z,35.40
2019-03-22T22:46:04.959Z,36.03
2019-03-22T22:48:35.148Z,33.77
2019-03-22T22:51:06.405Z,32.07
2019-03-22T22:53:36.700Z,35.10
2019-03-22T22:56:06.992Z,36.10
2019-03-22T22:58:37.241Z,34.47
2019-03-22T23:01:07.608Z,35.03
2019-03-22T23:03:37.827Z,32.90
2019-03-22T23:06:09.755Z,35.20
2019-03-22T23:08:39.946Z,34.43
2019-03-22T23:11:10.130Z,33.43
2019-03-22T23:13:40.403Z,34.37
2019-03-22T23:16:10.652Z,31.43
2019-03-22T23:18:40.883Z,33.70
2019-03-22T23:21:11.145Z,32.90
2019-03-22T23:23:41.373Z,32.07
2019-03-22T23:26:11.576Z,35.00
2019-03-22T23:28:42.337Z,33.43
2019-03-22T23:31:12.630Z,35.27
2019-03-22T23:33:43.453Z,33.30
2019-03-22T23:36:20.271Z,33.47
2019-03-22T23:38:46.418Z,31.77
2019-03-22T23:41:19.959Z,33.87
2019-03-22T23:43:50.384Z,32.80
2019-03-22T23:46:20.538Z,34.23
2019-03-22T23:48:50.729Z,35.43
2019-03-22T23:51:20.907Z,34.90
2019-03-22T23:53:51.146Z,34.23
2019-03-22T23:56:21.629Z,35.03
2019-03-22T23:58:52.466Z,33.97
